WZZ95 LHBP-EBCI
Flight info
| Callsign | WZZ95 |
|---|---|
| Flight time | 1h 39m |
| Altitude | 36000 |
| Route | GILEP DCT ZOLKU DCT BEGLA DCT DEXIT DCT EXITI DCT TEKTU DCT TESGA DCT UMUPU T880 ADMUM/N0396F240 T880 BATTY |
| Aircraft | A321/M-SDE1E2E3FGIJ1J4RWXY/LB1 |
Departure
| Time | 2026-05-04 07:54 |
|---|---|
| Airport | Budapest Liszt Ferenc International Airport (LHBP) |
Arrival
| Time | 2026-05-04 09:34 |
|---|---|
| Airport | Brussels South Charleroi Airport (EBCI) |
| Time | Latitude | Longitude | Altitude | Speed | Heading |
|---|---|---|---|---|---|
| 2026-05-04 07:35 | 47.43565 | 19.26393 | 457 ft | 0 kts | 222° |
| 2026-05-04 07:39 | 47.43571 | 19.26401 | 457 ft | 4 kts | 225° |
| 2026-05-04 07:39 | 47.43586 | 19.26432 | 455 ft | 4 kts | 251° |
| 2026-05-04 07:39 | 47.43589 | 19.26468 | 454 ft | 4 kts | 293° |
| 2026-05-04 07:39 | 47.43581 | 19.26486 | 455 ft | 1 kts | 313° |
| 2026-05-04 07:40 | 47.43580 | 19.26488 | 455 ft | 2 kts | 313° |
| 2026-05-04 07:43 | 47.43587 | 19.26476 | 454 ft | 5 kts | 312° |
| 2026-05-04 07:43 | 47.43613 | 19.26434 | 456 ft | 6 kts | 313° |
| 2026-05-04 07:43 | 47.43644 | 19.26384 | 456 ft | 7 kts | 311° |
| 2026-05-04 07:43 | 47.43672 | 19.26317 | 457 ft | 8 kts | 289° |
| 2026-05-04 07:44 | 47.43678 | 19.26229 | 457 ft | 9 kts | 268° |
| 2026-05-04 07:44 | 47.43674 | 19.26129 | 456 ft | 10 kts | 267° |
| 2026-05-04 07:44 | 47.43701 | 19.26029 | 457 ft | 11 kts | 309° |
| 2026-05-04 07:44 | 47.43728 | 19.25926 | 457 ft | 12 kts | 255° |
| 2026-05-04 07:45 | 47.43676 | 19.25833 | 457 ft | 12 kts | 223° |
| 2026-05-04 07:45 | 47.43610 | 19.25745 | 456 ft | 13 kts | 222° |
| 2026-05-04 07:45 | 47.43540 | 19.25651 | 457 ft | 14 kts | 222° |
| 2026-05-04 07:45 | 47.43466 | 19.25551 | 457 ft | 15 kts | 222° |
| 2026-05-04 07:46 | 47.43388 | 19.25447 | 457 ft | 15 kts | 222° |
| 2026-05-04 07:46 | 47.43307 | 19.25338 | 456 ft | 16 kts | 222° |
| 2026-05-04 07:46 | 47.43223 | 19.25225 | 457 ft | 17 kts | 222° |
| 2026-05-04 07:46 | 47.43172 | 19.25157 | 457 ft | 5 kts | 222° |
| 2026-05-04 07:47 | 47.43155 | 19.25135 | 456 ft | 0 kts | 222° |
| 2026-05-04 07:52 | 47.43155 | 19.25134 | 457 ft | 1 kts | 222° |
| 2026-05-04 07:52 | 47.43131 | 19.25102 | 457 ft | 9 kts | 222° |
| 2026-05-04 07:52 | 47.43086 | 19.25019 | 457 ft | 12 kts | 257° |
| 2026-05-04 07:52 | 47.43122 | 19.24906 | 457 ft | 14 kts | 311° |
| 2026-05-04 07:53 | 47.43280 | 19.24650 | 455 ft | 66 kts | 312° |
| 2026-05-04 07:54 | 47.48711 | 19.15844 | 2870 ft | 220 kts | 305° |
| 2026-05-04 07:55 | 47.49495 | 19.13820 | 3045 ft | 237 kts | 283° |
| 2026-05-04 07:55 | 47.49706 | 19.11327 | 3379 ft | 251 kts | 259° |
| 2026-05-04 07:55 | 47.49215 | 19.08869 | 4053 ft | 250 kts | 238° |
| 2026-05-04 07:55 | 47.48123 | 19.06893 | 4767 ft | 251 kts | 216° |
| 2026-05-04 07:56 | 47.47136 | 19.06002 | 5236 ft | 253 kts | 201° |
| 2026-05-04 07:56 | 47.45452 | 19.05159 | 5913 ft | 258 kts | 197° |
| 2026-05-04 07:56 | 47.43723 | 19.04349 | 6644 ft | 262 kts | 197° |
| 2026-05-04 07:56 | 47.41969 | 19.03529 | 7289 ft | 268 kts | 197° |
| 2026-05-04 07:57 | 47.40180 | 19.02692 | 7996 ft | 270 kts | 197° |
| 2026-05-04 07:57 | 47.38360 | 19.01839 | 8615 ft | 277 kts | 197° |
| 2026-05-04 07:57 | 47.36518 | 19.00923 | 9272 ft | 282 kts | 203° |
| 2026-05-04 07:57 | 47.34733 | 18.99659 | 9925 ft | 287 kts | 204° |
| 2026-05-04 07:58 | 47.32942 | 18.98296 | 10294 ft | 303 kts | 212° |
| 2026-05-04 07:58 | 47.31367 | 18.96074 | 10425 ft | 327 kts | 234° |
| 2026-05-04 07:58 | 47.30434 | 18.92931 | 10670 ft | 345 kts | 258° |
| 2026-05-04 07:58 | 47.30412 | 18.89377 | 11175 ft | 352 kts | 282° |
| 2026-05-04 07:59 | 47.31305 | 18.86016 | 11791 ft | 356 kts | 298° |
| 2026-05-04 07:59 | 47.32508 | 18.82814 | 12418 ft | 359 kts | 299° |
| 2026-05-04 07:59 | 47.33739 | 18.79605 | 13051 ft | 361 kts | 300° |
| 2026-05-04 07:59 | 47.34990 | 18.76370 | 13682 ft | 364 kts | 300° |
| 2026-05-04 08:00 | 47.36248 | 18.73112 | 14275 ft | 368 kts | 300° |
| 2026-05-04 08:00 | 47.37517 | 18.69815 | 14804 ft | 371 kts | 300° |
| 2026-05-04 08:00 | 47.38792 | 18.66483 | 15385 ft | 374 kts | 300° |
| 2026-05-04 08:02 | 47.45323 | 18.40792 | 19249 ft | 393 kts | 287° |
| 2026-05-04 08:02 | 47.46110 | 18.36916 | 19780 ft | 395 kts | 287° |
| 2026-05-04 08:02 | 47.46898 | 18.33023 | 20287 ft | 397 kts | 287° |
| 2026-05-04 08:03 | 47.47692 | 18.29097 | 20779 ft | 400 kts | 287° |
| 2026-05-04 08:03 | 47.48485 | 18.25146 | 21294 ft | 402 kts | 287° |
| 2026-05-04 08:03 | 47.49222 | 18.21135 | 21795 ft | 405 kts | 284° |
| 2026-05-04 08:03 | 47.49899 | 18.17096 | 22334 ft | 406 kts | 283° |
| 2026-05-04 08:04 | 47.50548 | 18.13028 | 22831 ft | 407 kts | 283° |
| 2026-05-04 08:04 | 47.51190 | 18.08934 | 23290 ft | 410 kts | 283° |
| 2026-05-04 08:04 | 47.51838 | 18.04822 | 23721 ft | 412 kts | 284° |
| 2026-05-04 08:04 | 47.52496 | 18.00691 | 24112 ft | 414 kts | 283° |
| 2026-05-04 08:05 | 47.53165 | 17.96534 | 24482 ft | 415 kts | 284° |
| 2026-05-04 08:05 | 47.53840 | 17.92377 | 24902 ft | 416 kts | 284° |
| 2026-05-04 08:05 | 47.54523 | 17.88201 | 25248 ft | 419 kts | 284° |
| 2026-05-04 08:05 | 47.55215 | 17.84008 | 25623 ft | 420 kts | 286° |
| 2026-05-04 08:06 | 47.56194 | 17.79932 | 25952 ft | 421 kts | 295° |
| 2026-05-04 08:06 | 47.57576 | 17.76177 | 26358 ft | 421 kts | 301° |
| 2026-05-04 08:06 | 47.59075 | 17.72437 | 26674 ft | 424 kts | 301° |
| 2026-05-04 08:06 | 47.60577 | 17.68674 | 27084 ft | 424 kts | 301° |
| 2026-05-04 08:08 | 47.71164 | 17.41908 | 29517 ft | 433 kts | 301° |
| 2026-05-04 08:08 | 47.72688 | 17.38029 | 29740 ft | 437 kts | 300° |
| 2026-05-04 08:10 | 47.84648 | 17.06126 | 32352 ft | 436 kts | 293° |
| 2026-05-04 08:11 | 47.85855 | 17.01994 | 32732 ft | 435 kts | 293° |
| 2026-05-04 08:11 | 47.88258 | 16.93769 | 33505 ft | 431 kts | 293° |
| 2026-05-04 08:11 | 47.89451 | 16.89681 | 33864 ft | 430 kts | 293° |
| 2026-05-04 08:12 | 47.90641 | 16.85594 | 34167 ft | 430 kts | 293° |
| 2026-05-04 08:12 | 47.91827 | 16.81514 | 34457 ft | 428 kts | 293° |
| 2026-05-04 08:12 | 47.93010 | 16.77440 | 34726 ft | 428 kts | 293° |
| 2026-05-04 08:12 | 47.94191 | 16.73363 | 34987 ft | 428 kts | 293° |
| 2026-05-04 08:13 | 47.95372 | 16.69274 | 35248 ft | 428 kts | 293° |
| 2026-05-04 08:13 | 47.96544 | 16.65207 | 35547 ft | 426 kts | 293° |
| 2026-05-04 08:13 | 47.97715 | 16.61143 | 35808 ft | 426 kts | 293° |
| 2026-05-04 08:13 | 47.98882 | 16.57079 | 36028 ft | 426 kts | 293° |
| 2026-05-04 08:14 | 48.01194 | 16.49020 | 36082 ft | 424 kts | 293° |
| 2026-05-04 08:16 | 48.10457 | 16.16428 | 36040 ft | 426 kts | 292° |
| 2026-05-04 08:16 | 48.12768 | 16.08240 | 36045 ft | 427 kts | 292° |
| 2026-05-04 08:17 | 48.15053 | 16.00095 | 36048 ft | 427 kts | 292° |
| 2026-05-04 08:17 | 48.17347 | 15.91899 | 36055 ft | 426 kts | 292° |
| 2026-05-04 08:19 | 48.26462 | 15.59072 | 36061 ft | 425 kts | 291° |
| 2026-05-04 08:20 | 48.28716 | 15.50868 | 36061 ft | 425 kts | 291° |
| 2026-05-04 08:20 | 48.30960 | 15.42702 | 36060 ft | 424 kts | 291° |
| 2026-05-04 08:21 | 48.33200 | 15.34507 | 36060 ft | 424 kts | 291° |
| 2026-05-04 08:21 | 48.35425 | 15.26306 | 36059 ft | 424 kts | 291° |
| 2026-05-04 08:22 | 48.37647 | 15.18103 | 36058 ft | 423 kts | 291° |
| 2026-05-04 08:24 | 48.46495 | 14.85228 | 36058 ft | 423 kts | 290° |
| 2026-05-04 08:24 | 48.48699 | 14.76987 | 36061 ft | 423 kts | 290° |
| 2026-05-04 08:25 | 48.50887 | 14.68744 | 36059 ft | 423 kts | 290° |
| 2026-05-04 08:25 | 48.53064 | 14.60495 | 36058 ft | 423 kts | 290° |
| 2026-05-04 08:27 | 48.61732 | 14.27489 | 36061 ft | 422 kts | 289° |
| 2026-05-04 08:28 | 48.63875 | 14.19223 | 36060 ft | 422 kts | 289° |
| 2026-05-04 08:28 | 48.66011 | 14.10984 | 36069 ft | 422 kts | 289° |
| 2026-05-04 08:29 | 48.68153 | 14.02700 | 36064 ft | 422 kts | 289° |
| 2026-05-04 08:31 | 48.76739 | 13.69629 | 36069 ft | 423 kts | 296° |
| 2026-05-04 08:33 | 48.88074 | 13.38272 | 36052 ft | 424 kts | 296° |
| 2026-05-04 08:35 | 48.99331 | 13.06658 | 36043 ft | 425 kts | 296° |
| 2026-05-04 08:35 | 49.02141 | 12.98726 | 36054 ft | 425 kts | 295° |
| 2026-05-04 08:37 | 49.11915 | 12.70890 | 36051 ft | 426 kts | 295° |
| 2026-05-04 08:38 | 49.14710 | 12.62886 | 36050 ft | 426 kts | 295° |
| 2026-05-04 08:38 | 49.17493 | 12.54893 | 36052 ft | 426 kts | 295° |
| 2026-05-04 08:40 | 49.28104 | 12.24140 | 36054 ft | 426 kts | 295° |
| 2026-05-04 08:41 | 49.30857 | 12.16087 | 36051 ft | 427 kts | 295° |
| 2026-05-04 08:41 | 49.33609 | 12.08020 | 36064 ft | 426 kts | 295° |
| 2026-05-04 08:42 | 49.36359 | 11.99954 | 36066 ft | 427 kts | 294° |
| 2026-05-04 08:42 | 49.39077 | 11.91932 | 36062 ft | 427 kts | 294° |
| 2026-05-04 08:43 | 49.41810 | 11.83848 | 36059 ft | 426 kts | 294° |
| 2026-05-04 08:43 | 49.44545 | 11.75754 | 36059 ft | 426 kts | 294° |
| 2026-05-04 08:44 | 49.47270 | 11.67656 | 36074 ft | 426 kts | 294° |
| 2026-05-04 08:46 | 49.58124 | 11.35264 | 36066 ft | 426 kts | 295° |
| 2026-05-04 08:46 | 49.61015 | 11.27271 | 36073 ft | 427 kts | 296° |
| 2026-05-04 08:47 | 49.63920 | 11.19290 | 36083 ft | 427 kts | 295° |
| 2026-05-04 08:47 | 49.66806 | 11.11217 | 36081 ft | 427 kts | 295° |
| 2026-05-04 08:48 | 49.69654 | 11.03175 | 36080 ft | 426 kts | 295° |
| 2026-05-04 08:48 | 49.72486 | 10.95130 | 36071 ft | 426 kts | 295° |
| 2026-05-04 08:49 | 49.75296 | 10.87134 | 36085 ft | 426 kts | 295° |
| 2026-05-04 08:50 | 49.85163 | 10.58958 | 36057 ft | 425 kts | 294° |
| 2026-05-04 08:51 | 49.87967 | 10.50892 | 36057 ft | 425 kts | 294° |
| 2026-05-04 08:51 | 49.90758 | 10.42818 | 36071 ft | 425 kts | 294° |
| 2026-05-04 08:52 | 49.93539 | 10.34743 | 36062 ft | 425 kts | 294° |
| 2026-05-04 08:52 | 49.96326 | 10.26640 | 36057 ft | 424 kts | 294° |
| 2026-05-04 08:54 | 50.07397 | 9.94224 | 36062 ft | 424 kts | 293° |
| 2026-05-04 08:55 | 50.10140 | 9.86094 | 36062 ft | 424 kts | 293° |
| 2026-05-04 08:55 | 50.12880 | 9.77958 | 36060 ft | 424 kts | 293° |
| 2026-05-04 09:01 | 50.38798 | 8.90925 | 36054 ft | 416 kts | 283° |
| 2026-05-04 09:01 | 50.40512 | 8.82254 | 36046 ft | 416 kts | 283° |
| 2026-05-04 09:02 | 50.42206 | 8.73635 | 36044 ft | 416 kts | 283° |
| 2026-05-04 09:02 | 50.43899 | 8.64957 | 36041 ft | 416 kts | 282° |
| 2026-05-04 09:03 | 50.45066 | 8.56143 | 36042 ft | 412 kts | 275° |
| 2026-05-04 09:03 | 50.45947 | 8.47261 | 36037 ft | 412 kts | 275° |
| 2026-05-04 09:04 | 50.46837 | 8.38381 | 36036 ft | 412 kts | 275° |
| 2026-05-04 09:04 | 50.47725 | 8.29487 | 36047 ft | 412 kts | 275° |
| 2026-05-04 09:05 | 50.48598 | 8.20592 | 36043 ft | 412 kts | 275° |
| 2026-05-04 09:05 | 50.49461 | 8.11677 | 36036 ft | 413 kts | 275° |
| 2026-05-04 09:06 | 50.50318 | 8.02752 | 36036 ft | 413 kts | 275° |
| 2026-05-04 09:08 | 50.53684 | 7.67009 | 36012 ft | 413 kts | 274° |
| 2026-05-04 09:08 | 50.54506 | 7.58112 | 36009 ft | 414 kts | 274° |
| 2026-05-04 09:09 | 50.55322 | 7.49134 | 36010 ft | 415 kts | 274° |
| 2026-05-04 09:09 | 50.55897 | 7.40139 | 36022 ft | 412 kts | 266° |
| 2026-05-04 09:10 | 50.55963 | 7.31124 | 36014 ft | 413 kts | 266° |
| 2026-05-04 09:10 | 50.56027 | 7.22094 | 36010 ft | 413 kts | 266° |
| 2026-05-04 09:10 | 50.56059 | 7.17559 | 35519 ft | 417 kts | 266° |
| 2026-05-04 09:11 | 50.56040 | 7.12985 | 34785 ft | 419 kts | 265° |
| 2026-05-04 09:11 | 50.55959 | 7.08400 | 34139 ft | 419 kts | 265° |
| 2026-05-04 09:11 | 50.55841 | 7.03830 | 33506 ft | 417 kts | 264° |
| 2026-05-04 09:11 | 50.55710 | 6.99292 | 32941 ft | 414 kts | 264° |
| 2026-05-04 09:12 | 50.55583 | 6.94781 | 32422 ft | 411 kts | 264° |
| 2026-05-04 09:12 | 50.55467 | 6.90310 | 31916 ft | 408 kts | 264° |
| 2026-05-04 09:14 | 50.55991 | 6.60561 | 25295 ft | 379 kts | 276° |
| 2026-05-04 09:14 | 50.56481 | 6.56511 | 24259 ft | 375 kts | 276° |
| 2026-05-04 09:14 | 50.56962 | 6.52532 | 23678 ft | 362 kts | 276° |
| 2026-05-04 09:14 | 50.57423 | 6.48753 | 23283 ft | 342 kts | 276° |
| 2026-05-04 09:15 | 50.57865 | 6.45150 | 22677 ft | 334 kts | 276° |
| 2026-05-04 09:15 | 50.58289 | 6.41603 | 22445 ft | 325 kts | 275° |
| 2026-05-04 09:15 | 50.58703 | 6.38122 | 22080 ft | 322 kts | 275° |
| 2026-05-04 09:15 | 50.59110 | 6.34660 | 21692 ft | 321 kts | 276° |
| 2026-05-04 09:17 | 50.62304 | 6.07440 | 18607 ft | 312 kts | 276° |
| 2026-05-04 09:18 | 50.62693 | 6.04086 | 18223 ft | 311 kts | 277° |
| 2026-05-04 09:18 | 50.63083 | 6.00734 | 17804 ft | 310 kts | 277° |
| 2026-05-04 09:18 | 50.63421 | 5.97406 | 17465 ft | 304 kts | 269° |
| 2026-05-04 09:18 | 50.63268 | 5.94192 | 17208 ft | 295 kts | 260° |
| 2026-05-04 09:19 | 50.63003 | 5.91012 | 16942 ft | 290 kts | 260° |
| 2026-05-04 09:19 | 50.62745 | 5.87893 | 16681 ft | 284 kts | 260° |
| 2026-05-04 09:19 | 50.62488 | 5.84835 | 16422 ft | 279 kts | 260° |
| 2026-05-04 09:19 | 50.62233 | 5.81830 | 16168 ft | 275 kts | 259° |
| 2026-05-04 09:20 | 50.61979 | 5.78858 | 15912 ft | 271 kts | 259° |
| 2026-05-04 09:20 | 50.61811 | 5.76890 | 15743 ft | 269 kts | 260° |
| 2026-05-04 09:20 | 50.61560 | 5.73980 | 15493 ft | 268 kts | 259° |
| 2026-05-04 09:20 | 50.61308 | 5.71081 | 15238 ft | 266 kts | 259° |
| 2026-05-04 09:21 | 50.61059 | 5.68198 | 14982 ft | 265 kts | 260° |
| 2026-05-04 09:21 | 50.60811 | 5.65325 | 14755 ft | 264 kts | 260° |
| 2026-05-04 09:21 | 50.60563 | 5.62474 | 14513 ft | 263 kts | 259° |
| 2026-05-04 09:21 | 50.60311 | 5.59618 | 14270 ft | 268 kts | 259° |
| 2026-05-04 09:22 | 50.60044 | 5.56619 | 14043 ft | 282 kts | 260° |
| 2026-05-04 09:22 | 50.59772 | 5.53544 | 13807 ft | 284 kts | 260° |
| 2026-05-04 09:22 | 50.59501 | 5.50467 | 13449 ft | 283 kts | 260° |
| 2026-05-04 09:22 | 50.59232 | 5.47402 | 13087 ft | 282 kts | 260° |
| 2026-05-04 09:23 | 50.58963 | 5.44358 | 12719 ft | 280 kts | 260° |
| 2026-05-04 09:23 | 50.58692 | 5.41327 | 12348 ft | 279 kts | 260° |
| 2026-05-04 09:23 | 50.58420 | 5.38308 | 11984 ft | 278 kts | 260° |
| 2026-05-04 09:23 | 50.58149 | 5.35295 | 11621 ft | 278 kts | 260° |
| 2026-05-04 09:25 | 50.56251 | 5.14366 | 9045 ft | 270 kts | 261° |
| 2026-05-04 09:25 | 50.55991 | 5.11522 | 8709 ft | 262 kts | 261° |
| 2026-05-04 09:26 | 50.55734 | 5.08730 | 8371 ft | 254 kts | 261° |
| 2026-05-04 09:26 | 50.55484 | 5.06022 | 8040 ft | 247 kts | 261° |
| 2026-05-04 09:26 | 50.55235 | 5.03361 | 7722 ft | 246 kts | 261° |
| 2026-05-04 09:26 | 50.54986 | 5.00700 | 7400 ft | 245 kts | 261° |
| 2026-05-04 09:27 | 50.54739 | 4.98050 | 7079 ft | 245 kts | 261° |
| 2026-05-04 09:27 | 50.54494 | 4.95406 | 6758 ft | 244 kts | 261° |
| 2026-05-04 09:27 | 50.54249 | 4.92772 | 6436 ft | 243 kts | 261° |
| 2026-05-04 09:27 | 50.54004 | 4.90144 | 6105 ft | 242 kts | 261° |
| 2026-05-04 09:28 | 50.53759 | 4.87525 | 5778 ft | 241 kts | 261° |
| 2026-05-04 09:28 | 50.53515 | 4.84928 | 5462 ft | 240 kts | 261° |
| 2026-05-04 09:28 | 50.53272 | 4.82342 | 5151 ft | 238 kts | 261° |
| 2026-05-04 09:28 | 50.53035 | 4.79822 | 4879 ft | 235 kts | 261° |
| 2026-05-04 09:29 | 50.52800 | 4.77342 | 4420 ft | 236 kts | 260° |
| 2026-05-04 09:29 | 50.52556 | 4.74812 | 4079 ft | 232 kts | 260° |
| 2026-05-04 09:29 | 50.52321 | 4.72356 | 3771 ft | 228 kts | 260° |
| 2026-05-04 09:29 | 50.52087 | 4.69918 | 3472 ft | 223 kts | 260° |
| 2026-05-04 09:30 | 50.51858 | 4.67524 | 3202 ft | 219 kts | 260° |
| 2026-05-04 09:30 | 50.51635 | 4.65227 | 2956 ft | 206 kts | 258° |
| 2026-05-04 09:30 | 50.51179 | 4.63197 | 2818 ft | 192 kts | 245° |
| 2026-05-04 09:30 | 50.50628 | 4.61316 | 2586 ft | 187 kts | 244° |
| 2026-05-04 09:31 | 50.50092 | 4.59476 | 2379 ft | 181 kts | 244° |
| 2026-05-04 09:31 | 50.49591 | 4.57745 | 2128 ft | 167 kts | 244° |
| 2026-05-04 09:31 | 50.49128 | 4.56142 | 1908 ft | 157 kts | 244° |
| 2026-05-04 09:31 | 50.48683 | 4.54602 | 1715 ft | 153 kts | 244° |
| 2026-05-04 09:32 | 50.48246 | 4.53089 | 1487 ft | 151 kts | 244° |
| 2026-05-04 09:32 | 50.47813 | 4.51590 | 1283 ft | 150 kts | 244° |
| 2026-05-04 09:34 | 50.45974 | 4.44772 | 596 ft | 16 kts | 1° |
| 2026-05-04 09:34 | 50.46049 | 4.44888 | 597 ft | 16 kts | 68° |
| 2026-05-04 09:34 | 50.46099 | 4.45056 | 596 ft | 18 kts | 65° |
| 2026-05-04 09:34 | 50.46151 | 4.45232 | 599 ft | 17 kts | 66° |
| 2026-05-04 09:35 | 50.46202 | 4.45414 | 598 ft | 19 kts | 66° |
| 2026-05-04 09:35 | 50.46259 | 4.45611 | 597 ft | 21 kts | 65° |
| 2026-05-04 09:35 | 50.46325 | 4.45834 | 593 ft | 24 kts | 65° |